Time;durP1;ratioP1;P1;durP2;ratioP2;P2;SDS_P1;SDS_P2;PMS_P1;PMS_P2;Temp;Humidity;BMP_temperature;BMP_pressure;BME280_temperature;BME280_humidity;BME280_pressure;Samples;Min_cycle;Max_cycle;Signal;HPM_P1;HPM_P2
2023/05/20 00:01:37;;;;;;;87.15;10.13;;;;;;;;;;4933658;29;20090;-71
2023/05/20 00:04:04;;;;;;;55.95;8.98;;;;;;;;;;4929578;29;20086;-71
2023/05/20 00:06:31;;;;;;;88.18;10.85;;;;;;;;;;4927110;29;20118;-72
2023/05/20 00:08:58;;;;;;;37.78;7.57;;;;;;;;;;4947612;29;20048;-71
2023/05/20 00:11:25;;;;;;;91.13;11.07;;;;;;;;;;4943767;29;20051;-72
2023/05/20 00:13:52;;;;;;;57.00;8.30;;;;;;;;;;4934028;29;20066;-70
2023/05/20 00:16:18;;;;;;;69.93;9.27;;;;;;;;;;4928668;29;20497;-71
2023/05/20 00:18:45;;;;;;;70.55;8.65;;;;;;;;;;4943445;29;20062;-70
2023/05/20 00:21:12;;;;;;;63.00;8.20;;;;;;;;;;4926062;29;20048;-70
2023/05/20 00:23:39;;;;;;;74.65;9.75;;;;;;;;;;4929638;29;20052;-70
2023/05/20 00:26:06;;;;;;;43.92;7.18;;;;;;;;;;4923584;29;20742;-70
2023/05/20 00:28:32;;;;;;;83.55;10.68;;;;;;;;;;4946739;29;20046;-71
2023/05/20 00:30:59;;;;;;;71.28;8.30;;;;;;;;;;4933273;29;20482;-70
2023/05/20 00:33:25;;;;;;;95.95;10.63;;;;;;;;;;4933949;29;20461;-71
2023/05/20 00:35:52;;;;;;;63.67;8.55;;;;;;;;;;4943400;29;20040;-70
2023/05/20 00:38:19;;;;;;;83.00;9.50;;;;;;;;;;4935528;29;20052;-71
2023/05/20 00:40:46;;;;;;;63.13;8.75;;;;;;;;;;4942941;29;20032;-71
2023/05/20 00:43:13;;;;;;;58.05;8.07;;;;;;;;;;4942714;29;20047;-70
2023/05/20 00:45:40;;;;;;;100.72;13.23;;;;;;;;;;4940623;29;20079;-70
2023/05/20 00:48:07;;;;;;;69.32;10.95;;;;;;;;;;4918036;29;20111;-72
2023/05/20 00:50:34;;;;;;;63.75;10.35;;;;;;;;;;4939659;28;20129;-71
2023/05/20 00:53:01;;;;;;;84.25;9.85;;;;;;;;;;4946524;29;20071;-70
2023/05/20 00:55:27;;;;;;;56.70;8.43;;;;;;;;;;4916079;29;20061;-70
2023/05/20 00:57:54;;;;;;;76.18;13.43;;;;;;;;;;4944729;29;20138;-71
2023/05/20 01:00:21;;;;;;;113.97;16.23;;;;;;;;;;4926265;29;20054;-72
2023/05/20 01:02:48;;;;;;;75.50;14.30;;;;;;;;;;4942388;29;20079;-71
2023/05/20 01:05:15;;;;;;;46.20;9.35;;;;;;;;;;4941791;29;20047;-70
2023/05/20 01:07:42;;;;;;;76.72;10.70;;;;;;;;;;4944137;29;20035;-71
2023/05/20 01:10:10;;;;;;;43.40;9.75;;;;;;;;;;4942755;29;20039;-70
2023/05/20 01:12:38;;;;;;;82.75;9.38;;;;;;;;;;4939847;29;20461;-72
2023/05/20 01:15:05;;;;;;;72.95;8.57;;;;;;;;;;4939545;29;20390;-71
2023/05/20 01:17:36;;;;;;;62.45;8.10;;;;;;;;;;4939523;29;20074;-72
2023/05/20 01:20:04;;;;;;;66.55;8.50;;;;;;;;;;4941930;29;20450;-71
2023/05/20 01:22:32;;;;;;;78.22;9.55;;;;;;;;;;4943641;29;20044;-71
2023/05/20 01:24:59;;;;;;;63.08;8.85;;;;;;;;;;4933138;29;20409;-70
2023/05/20 01:27:25;;;;;;;88.25;10.02;;;;;;;;;;4931477;29;20055;-71
2023/05/20 01:29:53;;;;;;;60.92;7.85;;;;;;;;;;4943240;29;20485;-70
2023/05/20 01:32:19;;;;;;;79.32;9.30;;;;;;;;;;4923329;29;20137;-71
2023/05/20 01:34:47;;;;;;;52.92;7.63;;;;;;;;;;4938364;29;20098;-71
2023/05/20 01:37:15;;;;;;;81.75;8.63;;;;;;;;;;4916844;29;20087;-70
2023/05/20 01:39:44;;;;;;;82.78;9.45;;;;;;;;;;4921208;29;20047;-70
2023/05/20 01:42:12;;;;;;;65.20;8.05;;;;;;;;;;4924991;29;20070;-71
2023/05/20 01:44:39;;;;;;;92.88;10.27;;;;;;;;;;4944206;29;20134;-71
2023/05/20 01:47:06;;;;;;;47.55;6.68;;;;;;;;;;4920229;29;20050;-71
2023/05/20 01:49:33;;;;;;;56.05;7.40;;;;;;;;;;4942259;29;20054;-71
2023/05/20 01:51:59;;;;;;;93.68;9.98;;;;;;;;;;4941093;29;20482;-71
2023/05/20 01:54:28;;;;;;;77.22;9.27;;;;;;;;;;4921493;29;20083;-71
2023/05/20 01:56:55;;;;;;;52.17;6.45;;;;;;;;;;4922624;29;20418;-70
2023/05/20 01:59:21;;;;;;;55.67;7.15;;;;;;;;;;4930170;29;20075;-71
2023/05/20 02:01:49;;;;;;;65.32;7.68;;;;;;;;;;4958809;23;20069;-68
2023/05/20 02:04:17;;;;;;;46.85;6.57;;;;;;;;;;4968203;28;20082;-67
2023/05/20 02:06:44;;;;;;;54.60;6.90;;;;;;;;;;4944677;28;20067;-66
2023/05/20 02:09:11;;;;;;;37.83;5.43;;;;;;;;;;4954126;28;20126;-67
2023/05/20 02:11:38;;;;;;;39.78;5.97;;;;;;;;;;4943794;28;20059;-69
2023/05/20 02:14:05;;;;;;;53.95;6.32;;;;;;;;;;4960736;28;20099;-66
2023/05/20 02:16:31;;;;;;;50.10;6.50;;;;;;;;;;4945306;28;20553;-67
2023/05/20 02:18:58;;;;;;;38.25;5.50;;;;;;;;;;4950510;28;20046;-65
2023/05/20 02:21:25;;;;;;;96.40;9.50;;;;;;;;;;4944224;28;20087;-68
2023/05/20 02:23:52;;;;;;;46.30;6.45;;;;;;;;;;4953831;28;20081;-66
2023/05/20 02:26:19;;;;;;;35.40;5.72;;;;;;;;;;4959446;28;20774;-67
2023/05/20 02:28:49;;;;;;;51.13;6.80;;;;;;;;;;4951924;28;20050;-68
2023/05/20 02:31:16;;;;;;;36.95;5.93;;;;;;;;;;4941477;28;20490;-67
2023/05/20 02:33:43;;;;;;;49.88;6.60;;;;;;;;;;4945877;28;20061;-67
2023/05/20 02:36:11;;;;;;;43.35;6.25;;;;;;;;;;4946738;28;20047;-66
2023/05/20 02:38:37;;;;;;;43.05;6.45;;;;;;;;;;4952120;28;20405;-66
2023/05/20 02:41:04;;;;;;;32.05;5.05;;;;;;;;;;4935241;28;20047;-67
2023/05/20 02:43:32;;;;;;;74.60;7.85;;;;;;;;;;4959472;28;20055;-67
2023/05/20 02:45:59;;;;;;;33.30;4.85;;;;;;;;;;4952737;28;20102;-68
2023/05/20 02:48:26;;;;;;;60.95;6.85;;;;;;;;;;4952826;28;20051;-67
2023/05/20 02:50:53;;;;;;;57.65;6.75;;;;;;;;;;4944167;28;20580;-66
2023/05/20 02:53:20;;;;;;;30.73;5.18;;;;;;;;;;4945235;28;20078;-66
2023/05/20 02:55:47;;;;;;;38.50;5.30;;;;;;;;;;4958686;28;20397;-66
2023/05/20 02:58:14;;;;;;;52.47;6.47;;;;;;;;;;4940970;28;20046;-67
2023/05/20 03:00:42;;;;;;;35.72;5.40;;;;;;;;;;4962027;28;20043;-66
2023/05/20 03:03:09;;;;;;;36.60;5.10;;;;;;;;;;4964095;28;20059;-65
2023/05/20 03:05:39;;;;;;;60.78;7.30;;;;;;;;;;4957522;28;20117;-67
2023/05/20 03:08:09;;;;;;;42.35;5.68;;;;;;;;;;4945420;28;20043;-67
2023/05/20 03:10:36;;;;;;;29.65;5.35;;;;;;;;;;4945488;28;20043;-67
2023/05/20 03:13:07;;;;;;;60.53;6.80;;;;;;;;;;4944179;28;20489;-65
2023/05/20 03:15:38;;;;;;;55.20;7.07;;;;;;;;;;4962718;28;20137;-69
2023/05/20 03:18:07;;;;;;;42.65;6.43;;;;;;;;;;4956644;28;20059;-65
2023/05/20 03:20:37;;;;;;;72.32;7.60;;;;;;;;;;4951399;28;20138;-66
2023/05/20 03:23:06;;;;;;;42.47;6.45;;;;;;;;;;4942263;28;20445;-66
2023/05/20 03:25:35;;;;;;;81.80;8.73;;;;;;;;;;4938377;28;20081;-69
2023/05/20 03:28:02;;;;;;;49.80;6.80;;;;;;;;;;4953956;28;20086;-66
2023/05/20 03:30:29;;;;;;;57.17;7.30;;;;;;;;;;4968414;28;20047;-67
2023/05/20 03:32:57;;;;;;;42.55;6.35;;;;;;;;;;4953842;28;20046;-67
2023/05/20 03:35:24;;;;;;;44.08;6.40;;;;;;;;;;4940019;28;20058;-66
2023/05/20 03:37:52;;;;;;;36.42;5.65;;;;;;;;;;4952661;28;20039;-68
2023/05/20 03:40:21;;;;;;;77.25;7.90;;;;;;;;;;4960146;28;20043;-67
2023/05/20 03:42:49;;;;;;;55.35;7.15;;;;;;;;;;4952673;28;20075;-65
2023/05/20 03:45:18;;;;;;;48.67;5.88;;;;;;;;;;4935478;28;20046;-66
2023/05/20 03:48:02;;;;;;;26.63;4.75;;;;;;;;;;4961431;28;20146;-67
2023/05/20 03:50:31;;;;;;;37.80;5.78;;;;;;;;;;4946037;28;20078;-66
2023/05/20 03:52:59;;;;;;;74.53;8.15;;;;;;;;;;4952171;28;20157;-66
2023/05/20 03:55:27;;;;;;;55.60;6.43;;;;;;;;;;4960706;28;20510;-68
2023/05/20 03:57:54;;;;;;;29.15;5.30;;;;;;;;;;4962063;28;20058;-66
2023/05/20 04:00:21;;;;;;;95.68;9.48;;;;;;;;;;4946991;28;20054;-67
2023/05/20 04:02:48;;;;;;;67.57;7.10;;;;;;;;;;4948975;28;20453;-68
2023/05/20 04:05:17;;;;;;;46.17;6.25;;;;;;;;;;4960948;28;20051;-68
2023/05/20 04:07:45;;;;;;;63.58;7.35;;;;;;;;;;4960817;28;20054;-67
2023/05/20 04:10:13;;;;;;;38.05;5.15;;;;;;;;;;4937752;28;20061;-65
2023/05/20 04:12:40;;;;;;;47.58;6.63;;;;;;;;;;4946712;28;20055;-68
2023/05/20 04:15:07;;;;;;;38.17;5.15;;;;;;;;;;4955864;28;20043;-68
2023/05/20 04:17:47;;;;;;;48.45;5.78;;;;;;;;;;4957062;28;20112;-67
2023/05/20 04:20:14;;;;;;;24.67;4.70;;;;;;;;;;4946530;28;20897;-68
2023/05/20 04:22:40;;;;;;;53.35;6.22;;;;;;;;;;4951994;28;20446;-66
2023/05/20 04:25:08;;;;;;;40.38;6.25;;;;;;;;;;4959670;28;20051;-68
2023/05/20 04:27:36;;;;;;;69.32;7.07;;;;;;;;;;4945649;28;20097;-68
2023/05/20 04:30:03;;;;;;;54.38;6.22;;;;;;;;;;4946992;29;20058;-68
2023/05/20 04:32:35;;;;;;;33.20;4.55;;;;;;;;;;4943509;28;20051;-68
2023/05/20 04:35:06;;;;;;;46.28;5.47;;;;;;;;;;4943874;28;20050;-68
2023/05/20 04:37:36;;;;;;;65.45;6.40;;;;;;;;;;4963956;28;20138;-67
2023/05/20 04:40:05;;;;;;;39.78;6.13;;;;;;;;;;4953886;28;20043;-66
2023/05/20 04:42:32;;;;;;;58.50;6.10;;;;;;;;;;4946051;28;20058;-66
2023/05/20 04:45:04;;;;;;;44.47;6.10;;;;;;;;;;4959740;28;20054;-67
2023/05/20 04:47:37;;;;;;;42.40;5.10;;;;;;;;;;4945295;28;20142;-70
2023/05/20 04:50:07;;;;;;;38.08;5.25;;;;;;;;;;4958263;28;20047;-67
2023/05/20 04:52:33;;;;;;;34.08;4.78;;;;;;;;;;4964996;28;20066;-68
2023/05/20 04:55:00;;;;;;;46.88;5.60;;;;;;;;;;4961956;28;20050;-66
2023/05/20 04:57:27;;;;;;;53.55;6.63;;;;;;;;;;4954477;28;20054;-65
2023/05/20 04:59:57;;;;;;;52.13;5.95;;;;;;;;;;4964705;28;20085;-66
2023/05/20 05:02:24;;;;;;;41.03;5.47;;;;;;;;;;4962371;28;20059;-67
2023/05/20 05:04:52;;;;;;;71.93;7.32;;;;;;;;;;4949518;28;20053;-66
2023/05/20 05:07:19;;;;;;;31.55;4.50;;;;;;;;;;4962877;28;20063;-66
2023/05/20 05:09:47;;;;;;;36.38;4.90;;;;;;;;;;4960075;28;20493;-66
2023/05/20 05:12:13;;;;;;;75.72;7.80;;;;;;;;;;4944113;28;20583;-66
2023/05/20 05:14:40;;;;;;;36.90;5.25;;;;;;;;;;4944896;28;20458;-69
2023/05/20 05:17:07;;;;;;;34.13;5.75;;;;;;;;;;4952290;28;20043;-66
2023/05/20 05:19:34;;;;;;;29.33;5.53;;;;;;;;;;4966047;28;20444;-64
2023/05/20 05:22:02;;;;;;;56.60;5.93;;;;;;;;;;4940895;28;20045;-65
2023/05/20 05:24:29;;;;;;;89.65;9.73;;;;;;;;;;4936023;28;20090;-65
2023/05/20 05:26:55;;;;;;;61.88;6.80;;;;;;;;;;4949869;28;20142;-65
2023/05/20 05:29:22;;;;;;;39.90;5.28;;;;;;;;;;4952187;28;20046;-65
2023/05/20 05:31:49;;;;;;;42.58;5.88;;;;;;;;;;4961841;28;20039;-65
2023/05/20 05:34:16;;;;;;;64.93;7.32;;;;;;;;;;4953539;28;20054;-65
2023/05/20 05:36:43;;;;;;;49.47;6.15;;;;;;;;;;4959717;28;20043;-67
2023/05/20 05:39:10;;;;;;;34.67;5.20;;;;;;;;;;4945156;28;20440;-66
2023/05/20 05:41:37;;;;;;;68.75;6.80;;;;;;;;;;4950085;28;20086;-65
2023/05/20 05:44:05;;;;;;;33.33;4.78;;;;;;;;;;4938398;28;20099;-65
2023/05/20 05:46:32;;;;;;;78.30;7.60;;;;;;;;;;4961852;28;20047;-68
2023/05/20 05:48:59;;;;;;;51.45;6.28;;;;;;;;;;4952157;28;20043;-67
2023/05/20 05:51:27;;;;;;;61.33;6.75;;;;;;;;;;4953459;28;20043;-68
2023/05/20 05:53:55;;;;;;;40.13;5.18;;;;;;;;;;4954376;28;20515;-66
2023/05/20 05:56:22;;;;;;;66.80;6.50;;;;;;;;;;4950484;28;20093;-66
2023/05/20 05:58:49;;;;;;;65.75;7.40;;;;;;;;;;4960056;28;20078;-65
2023/05/20 06:01:16;;;;;;;31.45;4.43;;;;;;;;;;4943596;28;20066;-67
2023/05/20 06:03:42;;;;;;;72.88;7.32;;;;;;;;;;4962266;28;23668;-66
2023/05/20 06:06:09;;;;;;;51.00;6.07;;;;;;;;;;4953126;28;20051;-65
2023/05/20 06:08:36;;;;;;;78.38;7.57;;;;;;;;;;4957499;28;20075;-68
2023/05/20 06:11:04;;;;;;;48.70;6.30;;;;;;;;;;4950792;28;20049;-68
2023/05/20 06:13:30;;;;;;;80.65;8.57;;;;;;;;;;4961394;28;20051;-69
2023/05/20 06:15:57;;;;;;;62.10;6.88;;;;;;;;;;4953126;28;20047;-67
2023/05/20 06:18:24;;;;;;;77.32;7.75;;;;;;;;;;4928730;28;20480;-69
2023/05/20 06:20:57;;;;;;;40.45;4.95;;;;;;;;;;4954177;28;20050;-69
2023/05/20 06:23:25;;;;;;;40.97;4.90;;;;;;;;;;4944449;28;20063;-66
2023/05/20 06:25:59;;;;;;;51.03;5.75;;;;;;;;;;4956440;28;20486;-65
2023/05/20 06:28:26;;;;;;;58.03;6.38;;;;;;;;;;4934284;28;20067;-66
2023/05/20 06:30:53;;;;;;;57.28;6.07;;;;;;;;;;4944467;28;20051;-64
2023/05/20 06:33:27;;;;;;;58.05;5.75;;;;;;;;;;4950523;28;20501;-67
2023/05/20 06:36:00;;;;;;;44.08;4.88;;;;;;;;;;4945458;28;20083;-69
2023/05/20 06:38:27;;;;;;;38.50;5.22;;;;;;;;;;4935299;29;20055;-65
2023/05/20 06:40:54;;;;;;;81.57;7.43;;;;;;;;;;4946656;28;20035;-66
2023/05/20 06:43:21;;;;;;;49.47;5.05;;;;;;;;;;4958988;28;20145;-65
2023/05/20 06:46:07;;;;;;;55.50;5.35;;;;;;;;;;4958478;28;20057;-66
2023/05/20 06:48:42;;;;;;;62.55;6.32;;;;;;;;;;4962471;28;20046;-65
2023/05/20 06:51:09;;;;;;;37.13;4.45;;;;;;;;;;4955930;28;20105;-65
2023/05/20 06:53:37;;;;;;;62.20;6.43;;;;;;;;;;4956469;28;20516;-66
2023/05/20 06:56:04;;;;;;;41.88;4.68;;;;;;;;;;4953483;28;20047;-66
2023/05/20 06:58:31;;;;;;;54.90;5.88;;;;;;;;;;4954647;28;20494;-66
2023/05/20 07:00:58;;;;;;;63.97;6.85;;;;;;;;;;4955352;28;20445;-66
2023/05/20 07:03:25;;;;;;;73.40;7.05;;;;;;;;;;4946823;28;20059;-66
2023/05/20 07:05:52;;;;;;;47.50;5.93;;;;;;;;;;4939613;28;20775;-68
2023/05/20 07:08:19;;;;;;;31.50;4.22;;;;;;;;;;4962911;28;20055;-67
2023/05/20 07:10:45;;;;;;;61.70;5.90;;;;;;;;;;4965325;28;20097;-64
2023/05/20 07:13:16;;;;;;;34.42;4.60;;;;;;;;;;4961360;28;20444;-68
2023/05/20 07:15:45;;;;;;;101.22;9.07;;;;;;;;;;4946144;28;20508;-67
2023/05/20 07:18:12;;;;;;;37.22;4.72;;;;;;;;;;4953921;28;20051;-64
2023/05/20 07:20:40;;;;;;;60.10;6.38;;;;;;;;;;4961853;28;20103;-66
2023/05/20 07:23:13;;;;;;;65.93;6.65;;;;;;;;;;4954272;28;20075;-65
2023/05/20 07:25:45;;;;;;;59.03;6.60;;;;;;;;;;4962190;28;20611;-64
2023/05/20 07:28:14;;;;;;;63.67;7.38;;;;;;;;;;4953650;28;20078;-64
2023/05/20 07:30:40;;;;;;;86.95;10.20;;;;;;;;;;4961483;28;20488;-67
2023/05/20 07:33:16;;;;;;;61.95;7.85;;;;;;;;;;4946147;28;20505;-65
2023/05/20 07:35:43;;;;;;;82.13;8.48;;;;;;;;;;4942709;29;20552;-65
2023/05/20 07:38:11;;;;;;;52.78;6.07;;;;;;;;;;4947649;28;20126;-66
2023/05/20 07:40:39;;;;;;;72.70;6.95;;;;;;;;;;4938666;28;20055;-65
2023/05/20 07:43:07;;;;;;;75.38;7.70;;;;;;;;;;4944817;28;20043;-66
2023/05/20 07:45:38;;;;;;;64.57;7.38;;;;;;;;;;4937578;28;20497;-67
2023/05/20 07:48:07;;;;;;;38.72;5.40;;;;;;;;;;4927317;28;20519;-67
2023/05/20 07:50:35;;;;;;;69.07;7.15;;;;;;;;;;4956112;28;20142;-66
2023/05/20 07:53:02;;;;;;;50.03;5.53;;;;;;;;;;4945640;28;20138;-68
2023/05/20 07:55:38;;;;;;;65.13;6.53;;;;;;;;;;4944836;28;20517;-66
2023/05/20 07:58:05;;;;;;;62.20;7.05;;;;;;;;;;4961290;28;20094;-64
2023/05/20 08:00:33;;;;;;;79.38;8.43;;;;;;;;;;4934428;28;20054;-66
2023/05/20 08:03:03;;;;;;;91.40;8.73;;;;;;;;;;4947174;28;20055;-66
2023/05/20 08:05:40;;;;;;;63.72;7.25;;;;;;;;;;4954151;28;20077;-64
2023/05/20 08:08:09;;;;;;;36.20;4.43;;;;;;;;;;4961490;28;20681;-65
2023/05/20 08:10:49;;;;;;;89.40;8.23;;;;;;;;;;4959951;28;20061;-65
2023/05/20 08:13:16;;;;;;;54.58;6.22;;;;;;;;;;4953472;28;20055;-67
2023/05/20 08:15:43;;;;;;;122.60;11.07;;;;;;;;;;4952440;28;20823;-67
2023/05/20 08:18:10;;;;;;;49.28;5.75;;;;;;;;;;4944287;28;20568;-67
2023/05/20 08:20:37;;;;;;;52.30;6.93;;;;;;;;;;4959653;28;20065;-65
2023/05/20 08:23:04;;;;;;;96.95;8.95;;;;;;;;;;4947839;28;20497;-66
2023/05/20 08:25:30;;;;;;;63.55;7.20;;;;;;;;;;4950077;28;20101;-65
2023/05/20 08:28:00;;;;;;;58.95;6.63;;;;;;;;;;4946812;28;20098;-66
2023/05/20 08:30:27;;;;;;;101.35;9.43;;;;;;;;;;4942998;28;20051;-65
2023/05/20 08:32:53;;;;;;;53.90;6.22;;;;;;;;;;4958681;28;20059;-65
2023/05/20 08:35:20;;;;;;;65.13;7.10;;;;;;;;;;4951834;28;20095;-64
2023/05/20 08:37:50;;;;;;;86.90;8.55;;;;;;;;;;4937045;28;20047;-64
2023/05/20 08:40:16;;;;;;;52.13;6.20;;;;;;;;;;4943831;28;20130;-65
2023/05/20 08:42:43;;;;;;;67.32;6.72;;;;;;;;;;4945863;28;20055;-66
2023/05/20 08:45:12;;;;;;;80.55;8.05;;;;;;;;;;4959009;28;20143;-65
2023/05/20 08:47:40;;;;;;;64.00;6.60;;;;;;;;;;4940208;28;20050;-65
2023/05/20 08:50:08;;;;;;;44.35;5.90;;;;;;;;;;4933195;28;20094;-65
2023/05/20 08:52:36;;;;;;;80.80;7.80;;;;;;;;;;4939389;28;20047;-66
2023/05/20 08:55:03;;;;;;;61.65;6.97;;;;;;;;;;4958720;28;20062;-67
2023/05/20 08:57:32;;;;;;;54.55;6.65;;;;;;;;;;4942782;28;20062;-67
2023/05/20 08:59:59;;;;;;;107.13;9.30;;;;;;;;;;4947233;28;20053;-64
2023/05/20 09:02:26;;;;;;;49.80;6.25;;;;;;;;;;4952396;28;20066;-66
2023/05/20 09:04:52;;;;;;;53.00;6.53;;;;;;;;;;4959691;28;20516;-66
2023/05/20 09:07:26;;;;;;;81.90;7.93;;;;;;;;;;4941714;28;20429;-65
2023/05/20 09:09:53;;;;;;;57.58;6.47;;;;;;;;;;4944764;28;20098;-68
2023/05/20 09:12:20;;;;;;;49.75;6.45;;;;;;;;;;4945257;28;20134;-64
2023/05/20 09:14:46;;;;;;;111.20;10.98;;;;;;;;;;4950732;28;20420;-64
2023/05/20 09:17:13;;;;;;;60.65;7.70;;;;;;;;;;4950263;28;20047;-65
2023/05/20 09:19:40;;;;;;;46.28;6.15;;;;;;;;;;4966205;28;20027;-64
2023/05/20 09:22:06;;;;;;;90.32;9.48;;;;;;;;;;4963737;28;20385;-67
2023/05/20 09:24:33;;;;;;;77.28;8.02;;;;;;;;;;4952835;28;20059;-65
2023/05/20 09:27:00;;;;;;;51.10;6.30;;;;;;;;;;4960059;28;20055;-65
2023/05/20 09:29:26;;;;;;;81.63;8.73;;;;;;;;;;4963428;28;20071;-65
2023/05/20 09:31:54;;;;;;;72.20;7.93;;;;;;;;;;4964503;28;20050;-68
2023/05/20 09:34:21;;;;;;;72.63;7.32;;;;;;;;;;4961243;28;20051;-70
2023/05/20 09:36:52;;;;;;;116.38;11.23;;;;;;;;;;4961256;28;20637;-67
2023/05/20 09:39:22;;;;;;;51.38;6.70;;;;;;;;;;4928329;28;20047;-65
2023/05/20 09:41:54;;;;;;;55.70;7.32;;;;;;;;;;4933645;29;20055;-66
2023/05/20 09:44:21;;;;;;;94.20;10.53;;;;;;;;;;4941213;28;20694;-64
2023/05/20 09:46:49;;;;;;;50.70;6.75;;;;;;;;;;4951359;28;20304;-65
2023/05/20 09:49:16;;;;;;;60.45;7.70;;;;;;;;;;4948589;28;20046;-68
2023/05/20 09:51:44;;;;;;;100.97;10.38;;;;;;;;;;4960129;28;20050;-65
2023/05/20 09:54:11;;;;;;;57.63;7.78;;;;;;;;;;4960226;28;20040;-66
2023/05/20 09:56:39;;;;;;;53.25;7.70;;;;;;;;;;4945037;28;20077;-65
2023/05/20 09:59:06;;;;;;;84.53;11.15;;;;;;;;;;4949405;28;20066;-67
2023/05/20 10:01:33;;;;;;;62.58;13.50;;;;;;;;;;4962034;28;20070;-65
2023/05/20 10:04:01;;;;;;;86.32;9.25;;;;;;;;;;4963087;28;20399;-66
2023/05/20 10:06:44;;;;;;;70.93;8.65;;;;;;;;;;4964117;28;20039;-64
2023/05/20 10:09:11;;;;;;;46.83;7.28;;;;;;;;;;4950269;28;20040;-67
2023/05/20 10:11:47;;;;;;;96.43;9.80;;;;;;;;;;4963252;28;20448;-65
2023/05/20 10:14:14;;;;;;;66.65;8.18;;;;;;;;;;4941482;28;20051;-65
2023/05/20 10:16:44;;;;;;;53.55;7.72;;;;;;;;;;4961453;28;20066;-65
2023/05/20 10:19:31;;;;;;;68.82;8.48;;;;;;;;;;4956486;28;20039;-66
2023/05/20 10:22:00;;;;;;;72.03;8.85;;;;;;;;;;4950642;28;20043;-65
2023/05/20 10:24:31;;;;;;;91.65;10.52;;;;;;;;;;4961846;28;20081;-66
2023/05/20 10:27:00;;;;;;;37.58;6.03;;;;;;;;;;4945194;28;20047;-67
2023/05/20 10:29:27;;;;;;;72.78;8.38;;;;;;;;;;4948593;28;20562;-64
2023/05/20 10:31:54;;;;;;;61.60;7.47;;;;;;;;;;4954701;28;20141;-64
2023/05/20 10:34:21;;;;;;;45.88;6.65;;;;;;;;;;4965816;28;20556;-65
2023/05/20 10:37:05;;;;;;;65.88;8.23;;;;;;;;;;4964929;28;20092;-65
2023/05/20 10:39:33;;;;;;;66.25;8.48;;;;;;;;;;4961318;28;20102;-66
2023/05/20 10:42:07;;;;;;;80.22;9.82;;;;;;;;;;4946913;28;20071;-64
2023/05/20 10:44:43;;;;;;;54.30;7.40;;;;;;;;;;4948677;28;20465;-65
2023/05/20 10:47:10;;;;;;;56.80;7.72;;;;;;;;;;4962032;28;20126;-64
2023/05/20 10:49:43;;;;;;;81.10;9.57;;;;;;;;;;4964370;28;20100;-64
2023/05/20 10:52:10;;;;;;;54.78;8.23;;;;;;;;;;4955298;28;20080;-66
2023/05/20 10:54:43;;;;;;;85.40;9.50;;;;;;;;;;4963304;28;20053;-65
2023/05/20 10:57:10;;;;;;;72.60;8.98;;;;;;;;;;4945917;28;20417;-65
2023/05/20 10:59:36;;;;;;;61.78;8.60;;;;;;;;;;4955432;28;20049;-65
2023/05/20 11:02:04;;;;;;;76.30;9.13;;;;;;;;;;4968040;28;20161;-67
2023/05/20 11:04:31;;;;;;;60.75;7.60;;;;;;;;;;4966863;28;20047;-65
2023/05/20 11:06:58;;;;;;;58.30;7.28;;;;;;;;;;4946465;28;20416;-67
2023/05/20 11:09:24;;;;;;;56.17;7.30;;;;;;;;;;4964249;28;20049;-67
2023/05/20 11:11:52;;;;;;;96.93;10.35;;;;;;;;;;4948039;28;20102;-64
2023/05/20 11:14:20;;;;;;;32.83;6.18;;;;;;;;;;4952642;28;20079;-64
2023/05/20 11:16:50;;;;;;;61.45;8.10;;;;;;;;;;4965016;28;20452;-67
2023/05/20 11:19:17;;;;;;;108.55;10.95;;;;;;;;;;4965257;28;20043;-65
2023/05/20 11:21:45;;;;;;;73.22;8.85;;;;;;;;;;4965068;28;20065;-65
2023/05/20 11:24:12;;;;;;;55.58;8.50;;;;;;;;;;4955733;28;20075;-65
2023/05/20 11:26:39;;;;;;;57.15;7.78;;;;;;;;;;4955353;28;20453;-65
2023/05/20 11:29:05;;;;;;;46.63;7.03;;;;;;;;;;4952802;28;20043;-66
2023/05/20 11:31:32;;;;;;;62.42;8.38;;;;;;;;;;4963941;28;20486;-64
2023/05/20 11:34:02;;;;;;;79.55;9.35;;;;;;;;;;4950103;28;20506;-64
2023/05/20 11:36:29;;;;;;;71.75;9.18;;;;;;;;;;4957104;28;20067;-64
2023/05/20 11:38:57;;;;;;;72.43;8.35;;;;;;;;;;4947931;28;20415;-65
2023/05/20 11:41:24;;;;;;;68.30;8.35;;;;;;;;;;4943719;28;20051;-65
2023/05/20 11:43:58;;;;;;;60.88;8.13;;;;;;;;;;4938494;28;20043;-65
2023/05/20 11:46:25;;;;;;;49.85;6.93;;;;;;;;;;4928733;28;20063;-65
2023/05/20 11:48:53;;;;;;;70.82;8.23;;;;;;;;;;4953441;28;20061;-64
2023/05/20 11:51:24;;;;;;;44.17;6.70;;;;;;;;;;4954248;28;20051;-64
2023/05/20 11:53:50;;;;;;;62.75;7.95;;;;;;;;;;4961757;28;20054;-65
2023/05/20 11:56:17;;;;;;;64.55;8.02;;;;;;;;;;4958900;28;20055;-65
2023/05/20 11:58:44;;;;;;;52.88;7.07;;;;;;;;;;4968624;28;20122;-65
2023/05/20 12:01:11;;;;;;;60.45;7.90;;;;;;;;;;4963587;28;20044;-64
2023/05/20 12:03:48;;;;;;;63.70;7.70;;;;;;;;;;4949063;28;20465;-65
2023/05/20 12:06:18;;;;;;;57.47;7.40;;;;;;;;;;4964517;28;20055;-65
2023/05/20 12:08:46;;;;;;;77.05;8.77;;;;;;;;;;4964270;28;20074;-64
2023/05/20 12:11:12;;;;;;;54.88;7.18;;;;;;;;;;4951915;28;20059;-66
2023/05/20 12:13:39;;;;;;;59.85;8.80;;;;;;;;;;4962018;28;20043;-66
2023/05/20 12:16:06;;;;;;;102.85;10.50;;;;;;;;;;4955133;28;20039;-66
2023/05/20 12:18:33;;;;;;;61.75;7.60;;;;;;;;;;4945701;28;20082;-66
2023/05/20 12:20:59;;;;;;;53.58;6.82;;;;;;;;;;4967772;28;20046;-65
2023/05/20 12:23:28;;;;;;;53.53;6.78;;;;;;;;;;4962548;28;20048;-64
2023/05/20 12:25:55;;;;;;;67.80;8.38;;;;;;;;;;4937902;28;20055;-65
2023/05/20 12:28:21;;;;;;;43.20;6.68;;;;;;;;;;4952729;28;20047;-65
2023/05/20 12:30:48;;;;;;;57.53;7.28;;;;;;;;;;4963697;28;20046;-68
2023/05/20 12:33:15;;;;;;;36.85;6.03;;;;;;;;;;4952791;28;20047;-65
2023/05/20 12:35:42;;;;;;;46.63;6.78;;;;;;;;;;4944198;28;20110;-65
2023/05/20 12:38:09;;;;;;;72.22;8.30;;;;;;;;;;4965341;28;20035;-64
2023/05/20 12:40:36;;;;;;;43.40;6.80;;;;;;;;;;4943817;28;20051;-66
2023/05/20 12:43:04;;;;;;;66.20;8.32;;;;;;;;;;4946420;28;20042;-67
2023/05/20 12:45:30;;;;;;;84.18;9.35;;;;;;;;;;4962522;28;20055;-69
2023/05/20 12:47:57;;;;;;;26.52;5.35;;;;;;;;;;4947517;28;20377;-64
2023/05/20 12:50:24;;;;;;;40.90;7.20;;;;;;;;;;4944279;28;20051;-66
2023/05/20 12:52:51;;;;;;;48.10;7.72;;;;;;;;;;4962307;28;20039;-64
2023/05/20 12:55:19;;;;;;;109.85;11.48;;;;;;;;;;4963031;28;20072;-66
2023/05/20 12:57:46;;;;;;;75.03;8.93;;;;;;;;;;4960311;28;20080;-65
2023/05/20 13:00:12;;;;;;;62.70;8.25;;;;;;;;;;4962482;28;20051;-67
2023/05/20 13:02:40;;;;;;;45.47;6.43;;;;;;;;;;4954445;28;20050;-65
2023/05/20 13:05:07;;;;;;;73.30;9.25;;;;;;;;;;4966444;28;20480;-65
2023/05/20 13:07:34;;;;;;;50.55;8.27;;;;;;;;;;4944684;28;20051;-66
2023/05/20 13:10:01;;;;;;;56.75;7.93;;;;;;;;;;4961825;28;20046;-65
2023/05/20 13:12:28;;;;;;;50.45;8.00;;;;;;;;;;4960776;28;20051;-65
2023/05/20 13:14:54;;;;;;;34.90;6.10;;;;;;;;;;4943306;28;20089;-66
2023/05/20 13:17:21;;;;;;;53.03;7.13;;;;;;;;;;4952944;28;20469;-66
2023/05/20 13:19:48;;;;;;;77.15;9.48;;;;;;;;;;4964054;28;20082;-66
2023/05/20 13:22:14;;;;;;;46.63;6.82;;;;;;;;;;4966543;28;20102;-66
2023/05/20 13:24:41;;;;;;;73.40;9.00;;;;;;;;;;4953849;28;20058;-65
2023/05/20 13:27:08;;;;;;;63.22;8.02;;;;;;;;;;4952894;28;20046;-66
2023/05/20 13:29:34;;;;;;;52.33;7.45;;;;;;;;;;4964622;28;20517;-69
2023/05/20 13:32:01;;;;;;;39.95;7.50;;;;;;;;;;4962662;28;20034;-66
2023/05/20 13:34:29;;;;;;;43.80;7.88;;;;;;;;;;4948622;28;20039;-66
2023/05/20 13:36:55;;;;;;;40.42;6.13;;;;;;;;;;4946551;28;20059;-65
2023/05/20 13:39:23;;;;;;;67.78;7.43;;;;;;;;;;4959640;28;20047;-65
2023/05/20 13:41:52;;;;;;;54.25;7.47;;;;;;;;;;4964367;28;20620;-68
2023/05/20 13:44:19;;;;;;;36.28;6.07;;;;;;;;;;4958721;28;20102;-67
2023/05/20 13:46:45;;;;;;;66.30;8.60;;;;;;;;;;4950705;28;20046;-67
2023/05/20 13:49:12;;;;;;;59.85;7.95;;;;;;;;;;4963388;28;20053;-65
2023/05/20 13:51:39;;;;;;;69.78;8.23;;;;;;;;;;4958864;28;20051;-67
2023/05/20 13:54:05;;;;;;;36.72;6.88;;;;;;;;;;4952707;28;20514;-68
2023/05/20 13:56:32;;;;;;;48.05;6.88;;;;;;;;;;4963511;28;20559;-65
2023/05/20 13:58:59;;;;;;;72.85;7.95;;;;;;;;;;4961664;28;20569;-65
2023/05/20 14:01:27;;;;;;;44.33;7.40;;;;;;;;;;4948740;28;20094;-65
2023/05/20 14:03:54;;;;;;;47.10;7.03;;;;;;;;;;4964316;28;20062;-67
2023/05/20 14:06:21;;;;;;;51.70;6.68;;;;;;;;;;4966965;28;20094;-67
2023/05/20 14:08:51;;;;;;;30.55;5.45;;;;;;;;;;4965694;28;20043;-65
2023/05/20 14:11:19;;;;;;;43.67;6.85;;;;;;;;;;4959241;28;20477;-66
2023/05/20 14:13:46;;;;;;;40.55;7.00;;;;;;;;;;4968465;28;20047;-64
2023/05/20 14:16:13;;;;;;;52.42;7.15;;;;;;;;;;4953795;28;20681;-65
2023/05/20 14:18:40;;;;;;;75.35;9.82;;;;;;;;;;4959413;28;20382;-64
2023/05/20 14:21:08;;;;;;;45.40;6.85;;;;;;;;;;4965716;28;20039;-65
2023/05/20 14:23:39;;;;;;;51.15;7.45;;;;;;;;;;4948754;28;20194;-67
2023/05/20 14:26:06;;;;;;;55.20;8.50;;;;;;;;;;4962693;28;20500;-69
2023/05/20 14:28:33;;;;;;;25.70;5.63;;;;;;;;;;4963160;28;20045;-65
2023/05/20 14:31:00;;;;;;;67.90;20.70;;;;;;;;;;4953235;28;20047;-65
2023/05/20 14:33:26;;;;;;;71.78;8.77;;;;;;;;;;4964583;28;20102;-72